sensor_id;sensor_type;location;lat;lon;timestamp;temperature;humidity
40816;DHT22;26535;48.788;9.214;2023-07-13T05:03:26;18.90;79.90
40816;DHT22;26535;48.788;9.214;2023-07-13T05:05:57;18.90;80.10
40816;DHT22;26535;48.788;9.214;2023-07-13T05:08:23;18.90;80.10
40816;DHT22;26535;48.788;9.214;2023-07-13T05:10:49;18.90;79.60
40816;DHT22;26535;48.788;9.214;2023-07-13T05:13:15;18.90;80.20
40816;DHT22;26535;48.788;9.214;2023-07-13T05:15:40;19.00;80.00
40816;DHT22;26535;48.788;9.214;2023-07-13T05:18:06;19.10;79.80
40816;DHT22;26535;48.788;9.214;2023-07-13T05:20:32;19.30;79.20
40816;DHT22;26535;48.788;9.214;2023-07-13T05:22:57;19.40;79.20
40816;DHT22;26535;48.788;9.214;2023-07-13T05:25:23;19.50;78.40
40816;DHT22;26535;48.788;9.214;2023-07-13T05:27:49;19.80;77.80
40816;DHT22;26535;48.788;9.214;2023-07-13T05:30:14;19.90;77.10
40816;DHT22;26535;48.788;9.214;2023-07-13T05:32:41;19.90;77.60
40816;DHT22;26535;48.788;9.214;2023-07-13T05:35:07;19.90;77.70
40816;DHT22;26535;48.788;9.214;2023-07-13T05:37:32;20.00;77.10
40816;DHT22;26535;48.788;9.214;2023-07-13T05:39:58;20.00;77.10
40816;DHT22;26535;48.788;9.214;2023-07-13T05:42:24;19.90;76.50
40816;DHT22;26535;48.788;9.214;2023-07-13T05:44:50;20.00;76.60
40816;DHT22;26535;48.788;9.214;2023-07-13T05:47:15;20.00;76.00
40816;DHT22;26535;48.788;9.214;2023-07-13T05:49:41;19.90;76.30
40816;DHT22;26535;48.788;9.214;2023-07-13T05:52:07;19.90;75.70
40816;DHT22;26535;48.788;9.214;2023-07-13T05:54:33;19.80;76.10
40816;DHT22;26535;48.788;9.214;2023-07-13T05:56:58;19.90;75.40
40816;DHT22;26535;48.788;9.214;2023-07-13T05:59:24;19.90;76.00
40816;DHT22;26535;48.788;9.214;2023-07-13T06:01:50;19.90;76.40
40816;DHT22;26535;48.788;9.214;2023-07-13T06:04:18;19.90;76.30
40816;DHT22;26535;48.788;9.214;2023-07-13T06:06:44;20.00;76.20
40816;DHT22;26535;48.788;9.214;2023-07-13T06:09:10;20.00;76.20
40816;DHT22;26535;48.788;9.214;2023-07-13T06:11:36;19.90;76.10
40816;DHT22;26535;48.788;9.214;2023-07-13T06:14:02;20.00;76.60
40816;DHT22;26535;48.788;9.214;2023-07-13T06:16:29;20.00;76.20
40816;DHT22;26535;48.788;9.214;2023-07-13T06:18:55;20.20;75.10
40816;DHT22;26535;48.788;9.214;2023-07-13T06:21:22;20.20;74.90
40816;DHT22;26535;48.788;9.214;2023-07-13T06:23:49;20.30;75.20
40816;DHT22;26535;48.788;9.214;2023-07-13T06:26:17;20.30;74.20
40816;DHT22;26535;48.788;9.214;2023-07-13T06:28:43;20.30;74.50
40816;DHT22;26535;48.788;9.214;2023-07-13T06:31:11;20.40;74.10
40816;DHT22;26535;48.788;9.214;2023-07-13T06:33:37;20.50;74.40
40816;DHT22;26535;48.788;9.214;2023-07-13T06:36:04;20.40;74.00
40816;DHT22;26535;48.788;9.214;2023-07-13T06:38:31;20.60;74.10
40816;DHT22;26535;48.788;9.214;2023-07-13T06:40:57;20.70;73.70
40816;DHT22;26535;48.788;9.214;2023-07-13T06:43:23;20.80;73.40
40816;DHT22;26535;48.788;9.214;2023-07-13T06:45:50;21.00;72.40
40816;DHT22;26535;48.788;9.214;2023-07-13T06:48:18;21.10;72.20
40816;DHT22;26535;48.788;9.214;2023-07-13T06:50:44;21.40;71.80
40816;DHT22;26535;48.788;9.214;2023-07-13T06:53:11;21.60;71.50
40816;DHT22;26535;48.788;9.214;2023-07-13T06:55:37;21.60;70.80
40816;DHT22;26535;48.788;9.214;2023-07-13T06:58:03;21.80;70.50
40816;DHT22;26535;48.788;9.214;2023-07-13T07:00:29;21.90;70.70
40816;DHT22;26535;48.788;9.214;2023-07-13T07:02:55;22.00;68.80
40816;DHT22;26535;48.788;9.214;2023-07-13T07:05:20;22.00;70.00
40816;DHT22;26535;48.788;9.214;2023-07-13T07:07:49;21.90;70.00
40816;DHT22;26535;48.788;9.214;2023-07-13T07:10:15;21.90;69.10
40816;DHT22;26535;48.788;9.214;2023-07-13T07:12:41;21.80;69.30
40816;DHT22;26535;48.788;9.214;2023-07-13T07:15:06;21.70;69.10
40816;DHT22;26535;48.788;9.214;2023-07-13T07:17:32;21.70;69.10
40816;DHT22;26535;48.788;9.214;2023-07-13T07:19:58;21.60;69.80
40816;DHT22;26535;48.788;9.214;2023-07-13T07:22:24;21.80;69.10
40816;DHT22;26535;48.788;9.214;2023-07-13T07:24:53;21.90;69.20
40816;DHT22;26535;48.788;9.214;2023-07-13T07:27:19;22.00;67.90
40816;DHT22;26535;48.788;9.214;2023-07-13T07:29:45;22.10;67.40
40816;DHT22;26535;48.788;9.214;2023-07-13T07:32:10;22.00;66.00
40816;DHT22;26535;48.788;9.214;2023-07-13T07:34:36;22.10;65.90
40816;DHT22;26535;48.788;9.214;2023-07-13T07:37:02;22.10;66.00
40816;DHT22;26535;48.788;9.214;2023-07-13T07:39:28;22.00;66.80
40816;DHT22;26535;48.788;9.214;2023-07-13T07:41:54;22.10;67.00
40816;DHT22;26535;48.788;9.214;2023-07-13T07:44:20;22.20;67.10
40816;DHT22;26535;48.788;9.214;2023-07-13T07:46:46;22.20;66.90
40816;DHT22;26535;48.788;9.214;2023-07-13T07:49:12;22.20;67.50
40816;DHT22;26535;48.788;9.214;2023-07-13T07:51:37;22.40;67.70
40816;DHT22;26535;48.788;9.214;2023-07-13T07:54:04;22.60;66.80
40816;DHT22;26535;48.788;9.214;2023-07-13T07:56:31;22.60;66.00
40816;DHT22;26535;48.788;9.214;2023-07-13T07:58:57;22.60;65.90
40816;DHT22;26535;48.788;9.214;2023-07-13T08:01:22;22.50;65.30
40816;DHT22;26535;48.788;9.214;2023-07-13T08:03:48;22.70;64.60
40816;DHT22;26535;48.788;9.214;2023-07-13T08:06:14;22.60;64.70
40816;DHT22;26535;48.788;9.214;2023-07-13T08:08:40;22.60;63.70
40816;DHT22;26535;48.788;9.214;2023-07-13T08:11:08;22.70;63.70
40816;DHT22;26535;48.788;9.214;2023-07-13T08:13:34;22.70;63.90
40816;DHT22;26535;48.788;9.214;2023-07-13T08:16:01;22.80;64.40
40816;DHT22;26535;48.788;9.214;2023-07-13T08:18:27;22.90;63.90
40816;DHT22;26535;48.788;9.214;2023-07-13T08:20:55;23.00;63.70
40816;DHT22;26535;48.788;9.214;2023-07-13T08:23:24;23.00;63.10
40816;DHT22;26535;48.788;9.214;2023-07-13T08:25:54;23.10;62.20
40816;DHT22;26535;48.788;9.214;2023-07-13T08:28:23;23.00;62.30
40816;DHT22;26535;48.788;9.214;2023-07-13T08:30:49;23.00;62.00
40816;DHT22;26535;48.788;9.214;2023-07-13T08:33:17;23.00;62.40
40816;DHT22;26535;48.788;9.214;2023-07-13T08:35:46;23.10;62.70
40816;DHT22;26535;48.788;9.214;2023-07-13T08:38:12;23.20;62.80
40816;DHT22;26535;48.788;9.214;2023-07-13T08:40:39;23.30;62.20
40816;DHT22;26535;48.788;9.214;2023-07-13T08:43:13;23.30;62.60
40816;DHT22;26535;48.788;9.214;2023-07-13T08:45:47;23.50;62.70
40816;DHT22;26535;48.788;9.214;2023-07-13T08:48:17;23.60;62.10
40816;DHT22;26535;48.788;9.214;2023-07-13T08:53:48;23.70;62.40
40816;DHT22;26535;48.788;9.214;2023-07-13T08:56:20;23.80;62.60
40816;DHT22;26535;48.788;9.214;2023-07-13T08:58:50;24.00;62.10
40816;DHT22;26535;48.788;9.214;2023-07-13T09:04:14;24.20;61.90
40816;DHT22;26535;48.788;9.214;2023-07-13T09:10:40;24.50;62.50
40816;DHT22;26535;48.788;9.214;2023-07-13T09:15:45;24.90;61.60
40816;DHT22;26535;48.788;9.214;2023-07-13T09:18:26;25.30;61.30
40816;DHT22;26535;48.788;9.214;2023-07-13T09:20:56;25.50;59.70
40816;DHT22;26535;48.788;9.214;2023-07-13T09:23:24;25.70;59.40
40816;DHT22;26535;48.788;9.214;2023-07-13T09:25:56;25.60;58.40
40816;DHT22;26535;48.788;9.214;2023-07-13T09:28:33;25.40;58.60
40816;DHT22;26535;48.788;9.214;2023-07-13T09:33:29;25.30;59.30
40816;DHT22;26535;48.788;9.214;2023-07-13T09:35:57;25.40;59.00
40816;DHT22;26535;48.788;9.214;2023-07-13T09:38:29;25.50;59.20
40816;DHT22;26535;48.788;9.214;2023-07-13T09:44:10;26.00;58.10
40816;DHT22;26535;48.788;9.214;2023-07-13T09:46:38;26.00;58.00
40816;DHT22;26535;48.788;9.214;2023-07-13T09:49:04;25.70;58.30
40816;DHT22;26535;48.788;9.214;2023-07-13T09:51:30;25.40;59.00
40816;DHT22;26535;48.788;9.214;2023-07-13T09:53:56;25.30;59.50
40816;DHT22;26535;48.788;9.214;2023-07-13T09:56:26;25.30;58.70
40816;DHT22;26535;48.788;9.214;2023-07-13T09:58:52;25.60;58.10
40816;DHT22;26535;48.788;9.214;2023-07-13T10:01:38;26.20;58.60
40816;DHT22;26535;48.788;9.214;2023-07-13T10:04:12;26.50;57.20
40816;DHT22;26535;48.788;9.214;2023-07-13T10:06:41;26.80;57.00
40816;DHT22;26535;48.788;9.214;2023-07-13T10:09:08;27.10;56.40
40816;DHT22;26535;48.788;9.214;2023-07-13T10:11:36;27.10;56.20
40816;DHT22;26535;48.788;9.214;2023-07-13T10:14:15;26.90;56.10
40816;DHT22;26535;48.788;9.214;2023-07-13T10:16:43;26.70;56.80
40816;DHT22;26535;48.788;9.214;2023-07-13T10:19:21;26.90;56.70
40816;DHT22;26535;48.788;9.214;2023-07-13T10:21:57;26.90;56.10
40816;DHT22;26535;48.788;9.214;2023-07-13T10:24:30;27.10;55.80
40816;DHT22;26535;48.788;9.214;2023-07-13T10:27:17;27.00;56.60
40816;DHT22;26535;48.788;9.214;2023-07-13T10:32:51;27.30;55.50
40816;DHT22;26535;48.788;9.214;2023-07-13T10:35:19;27.60;56.00
40816;DHT22;26535;48.788;9.214;2023-07-13T10:38:02;27.80;55.50
40816;DHT22;26535;48.788;9.214;2023-07-13T10:40:44;28.00;55.20
40816;DHT22;26535;48.788;9.214;2023-07-13T10:43:41;28.20;55.30
40816;DHT22;26535;48.788;9.214;2023-07-13T10:46:11;28.10;54.30
40816;DHT22;26535;48.788;9.214;2023-07-13T10:48:39;28.00;54.90
40816;DHT22;26535;48.788;9.214;2023-07-13T10:51:06;28.50;54.10
40816;DHT22;26535;48.788;9.214;2023-07-13T10:53:35;28.50;53.90
40816;DHT22;26535;48.788;9.214;2023-07-13T10:56:05;28.40;54.00
40816;DHT22;26535;48.788;9.214;2023-07-13T10:58:41;28.50;53.50
40816;DHT22;26535;48.788;9.214;2023-07-13T11:04:18;28.40;53.80
40816;DHT22;26535;48.788;9.214;2023-07-13T11:09:03;28.10;54.00
40816;DHT22;26535;48.788;9.214;2023-07-13T11:14:03;28.50;53.80
40816;DHT22;26535;48.788;9.214;2023-07-13T11:16:46;28.60;53.10
40816;DHT22;26535;48.788;9.214;2023-07-13T11:22:10;28.80;54.30
40816;DHT22;26535;48.788;9.214;2023-07-13T11:24:52;28.80;53.30
40816;DHT22;26535;48.788;9.214;2023-07-13T11:27:42;28.60;54.20
40816;DHT22;26535;48.788;9.214;2023-07-13T11:35:59;28.50;54.00
40816;DHT22;26535;48.788;9.214;2023-07-13T11:38:33;29.00;53.10
40816;DHT22;26535;48.788;9.214;2023-07-13T11:41:06;29.40;53.20
40816;DHT22;26535;48.788;9.214;2023-07-13T11:43:33;30.00;52.10
40816;DHT22;26535;48.788;9.214;2023-07-13T11:46:13;30.40;51.30
40816;DHT22;26535;48.788;9.214;2023-07-13T11:48:38;30.10;52.10
40816;DHT22;26535;48.788;9.214;2023-07-13T11:51:05;31.20;50.40
40816;DHT22;26535;48.788;9.214;2023-07-13T11:53:39;31.40;50.40
40816;DHT22;26535;48.788;9.214;2023-07-13T11:56:06;31.50;49.90
40816;DHT22;26535;48.788;9.214;2023-07-13T11:58:32;31.50;49.70
40816;DHT22;26535;48.788;9.214;2023-07-13T12:00:59;30.70;50.40
40816;DHT22;26535;48.788;9.214;2023-07-13T12:03:28;29.90;51.20
40816;DHT22;26535;48.788;9.214;2023-07-13T12:06:03;29.30;51.70
40816;DHT22;26535;48.788;9.214;2023-07-13T12:08:31;29.80;52.20
40816;DHT22;26535;48.788;9.214;2023-07-13T12:11:06;31.30;50.80
40816;DHT22;26535;48.788;9.214;2023-07-13T12:13:37;32.40;49.40
40816;DHT22;26535;48.788;9.214;2023-07-13T12:16:25;34.20;47.80
40816;DHT22;26535;48.788;9.214;2023-07-13T12:18:53;34.50;47.10
40816;DHT22;26535;48.788;9.214;2023-07-13T12:21:29;34.00;47.50
40816;DHT22;26535;48.788;9.214;2023-07-13T12:23:55;32.40;48.10
40816;DHT22;26535;48.788;9.214;2023-07-13T12:26:21;31.60;50.30
40816;DHT22;26535;48.788;9.214;2023-07-13T12:28:54;31.80;50.00
40816;DHT22;26535;48.788;9.214;2023-07-13T12:31:41;32.40;49.80
40816;DHT22;26535;48.788;9.214;2023-07-13T12:34:14;33.00;48.60
40816;DHT22;26535;48.788;9.214;2023-07-13T12:39:18;33.70;47.70
40816;DHT22;26535;48.788;9.214;2023-07-13T12:41:45;33.10;48.50
40816;DHT22;26535;48.788;9.214;2023-07-13T12:44:13;32.20;47.70
40816;DHT22;26535;48.788;9.214;2023-07-13T12:46:52;31.10;48.70
40816;DHT22;26535;48.788;9.214;2023-07-13T12:49:23;30.40;49.70
40816;DHT22;26535;48.788;9.214;2023-07-13T12:51:55;29.50;50.10
40816;DHT22;26535;48.788;9.214;2023-07-13T12:54:21;29.60;50.60
40816;DHT22;26535;48.788;9.214;2023-07-13T12:56:50;31.90;49.30
40816;DHT22;26535;48.788;9.214;2023-07-13T12:59:20;34.20;47.00
40816;DHT22;26535;48.788;9.214;2023-07-13T13:01:46;35.80;46.00
40816;DHT22;26535;48.788;9.214;2023-07-13T13:04:15;37.10;44.50
40816;DHT22;26535;48.788;9.214;2023-07-13T13:06:41;37.80;43.60
40816;DHT22;26535;48.788;9.214;2023-07-13T13:09:15;38.30;43.50
40816;DHT22;26535;48.788;9.214;2023-07-13T13:11:42;38.90;42.30
40816;DHT22;26535;48.788;9.214;2023-07-13T13:14:08;39.40;42.50
40816;DHT22;26535;48.788;9.214;2023-07-13T13:16:49;40.10;42.00
40816;DHT22;26535;48.788;9.214;2023-07-13T13:21:47;40.70;40.90
40816;DHT22;26535;48.788;9.214;2023-07-13T13:24:17;40.00;40.90
40816;DHT22;26535;48.788;9.214;2023-07-13T13:26:45;40.70;40.60
40816;DHT22;26535;48.788;9.214;2023-07-13T13:29:16;39.90;40.80
40816;DHT22;26535;48.788;9.214;2023-07-13T13:31:42;39.70;40.60
40816;DHT22;26535;48.788;9.214;2023-07-13T13:34:10;39.60;40.50
40816;DHT22;26535;48.788;9.214;2023-07-13T13:36:36;39.20;41.20
40816;DHT22;26535;48.788;9.214;2023-07-13T13:39:02;39.60;40.60
40816;DHT22;26535;48.788;9.214;2023-07-13T13:41:30;39.50;40.50
40816;DHT22;26535;48.788;9.214;2023-07-13T13:43:56;39.60;40.30
40816;DHT22;26535;48.788;9.214;2023-07-13T13:46:24;38.60;40.90
40816;DHT22;26535;48.788;9.214;2023-07-13T13:48:55;39.10;41.10
40816;DHT22;26535;48.788;9.214;2023-07-13T13:51:23;39.70;41.00
40816;DHT22;26535;48.788;9.214;2023-07-13T13:53:50;39.80;40.00
40816;DHT22;26535;48.788;9.214;2023-07-13T13:56:17;40.70;40.30
40816;DHT22;26535;48.788;9.214;2023-07-13T13:58:43;41.00;39.60
40816;DHT22;26535;48.788;9.214;2023-07-13T14:01:21;40.90;40.00
40816;DHT22;26535;48.788;9.214;2023-07-13T14:03:48;39.60;40.80
40816;DHT22;26535;48.788;9.214;2023-07-13T14:06:16;37.80;41.20
40816;DHT22;26535;48.788;9.214;2023-07-13T14:08:43;36.20;41.70
40816;DHT22;26535;48.788;9.214;2023-07-13T14:11:14;34.80;43.90
40816;DHT22;26535;48.788;9.214;2023-07-13T14:13:49;34.20;43.70
40816;DHT22;26535;48.788;9.214;2023-07-13T14:16:18;35.30;43.70
40816;DHT22;26535;48.788;9.214;2023-07-13T14:18:45;37.60;41.70
40816;DHT22;26535;48.788;9.214;2023-07-13T14:21:14;39.10;42.10
40816;DHT22;26535;48.788;9.214;2023-07-13T14:23:40;40.10;40.40
40816;DHT22;26535;48.788;9.214;2023-07-13T14:26:15;39.30;40.30
40816;DHT22;26535;48.788;9.214;2023-07-13T14:28:43;38.90;40.60
40816;DHT22;26535;48.788;9.214;2023-07-13T14:31:12;37.70;41.20
40816;DHT22;26535;48.788;9.214;2023-07-13T14:33:38;36.40;42.60
40816;DHT22;26535;48.788;9.214;2023-07-13T14:36:32;36.60;42.30
40816;DHT22;26535;48.788;9.214;2023-07-13T14:39:05;35.00;42.80
40816;DHT22;26535;48.788;9.214;2023-07-13T14:41:36;34.40;43.40
40816;DHT22;26535;48.788;9.214;2023-07-13T14:44:20;35.50;42.70
40816;DHT22;26535;48.788;9.214;2023-07-13T14:46:47;37.10;41.40
40816;DHT22;26535;48.788;9.214;2023-07-13T14:49:29;38.70;41.20
40816;DHT22;26535;48.788;9.214;2023-07-13T14:51:57;40.40;39.70
40816;DHT22;26535;48.788;9.214;2023-07-13T14:54:24;40.80;39.40
40816;DHT22;26535;48.788;9.214;2023-07-13T14:56:49;41.20;39.00
40816;DHT22;26535;48.788;9.214;2023-07-13T14:59:16;41.70;39.00
40816;DHT22;26535;48.788;9.214;2023-07-13T15:01:45;41.70;38.70
40816;DHT22;26535;48.788;9.214;2023-07-13T15:04:11;42.40;38.30
40816;DHT22;26535;48.788;9.214;2023-07-13T15:06:57;42.80;38.20
40816;DHT22;26535;48.788;9.214;2023-07-13T15:09:24;42.20;38.20
40816;DHT22;26535;48.788;9.214;2023-07-13T15:11:55;41.50;38.50
40816;DHT22;26535;48.788;9.214;2023-07-13T15:14:21;40.60;39.00
40816;DHT22;26535;48.788;9.214;2023-07-13T15:16:49;40.90;39.50
40816;DHT22;26535;48.788;9.214;2023-07-13T15:19:17;41.10;39.20
40816;DHT22;26535;48.788;9.214;2023-07-13T15:21:43;41.10;39.10
40816;DHT22;26535;48.788;9.214;2023-07-13T15:24:10;41.00;38.70
40816;DHT22;26535;48.788;9.214;2023-07-13T15:26:36;41.30;38.80
40816;DHT22;26535;48.788;9.214;2023-07-13T15:29:02;41.70;39.00
40816;DHT22;26535;48.788;9.214;2023-07-13T15:31:32;41.30;38.30
40816;DHT22;26535;48.788;9.214;2023-07-13T15:33:59;40.70;38.70
40816;DHT22;26535;48.788;9.214;2023-07-13T15:36:26;39.60;39.50
40816;DHT22;26535;48.788;9.214;2023-07-13T15:38:53;39.70;39.50
40816;DHT22;26535;48.788;9.214;2023-07-13T15:41:20;40.30;39.90
40816;DHT22;26535;48.788;9.214;2023-07-13T15:43:49;41.00;38.90
40816;DHT22;26535;48.788;9.214;2023-07-13T15:46:21;41.60;38.10
40816;DHT22;26535;48.788;9.214;2023-07-13T15:48:48;41.30;37.90
40816;DHT22;26535;48.788;9.214;2023-07-13T15:51:34;40.70;38.70
40816;DHT22;26535;48.788;9.214;2023-07-13T15:54:02;40.60;38.70
40816;DHT22;26535;48.788;9.214;2023-07-13T15:56:35;40.70;38.40
40816;DHT22;26535;48.788;9.214;2023-07-13T15:59:02;39.50;39.20
40816;DHT22;26535;48.788;9.214;2023-07-13T16:01:30;40.00;38.60
40816;DHT22;26535;48.788;9.214;2023-07-13T16:03:56;39.30;39.30
40816;DHT22;26535;48.788;9.214;2023-07-13T16:06:41;39.20;39.40
40816;DHT22;26535;48.788;9.214;2023-07-13T16:09:12;39.60;39.30
40816;DHT22;26535;48.788;9.214;2023-07-13T16:11:44;40.30;38.50
40816;DHT22;26535;48.788;9.214;2023-07-13T16:14:14;40.80;38.50
40816;DHT22;26535;48.788;9.214;2023-07-13T16:16:40;40.80;38.40
40816;DHT22;26535;48.788;9.214;2023-07-13T16:19:06;40.20;38.50
40816;DHT22;26535;48.788;9.214;2023-07-13T16:21:39;39.90;38.80
40816;DHT22;26535;48.788;9.214;2023-07-13T16:24:15;39.90;38.70
40816;DHT22;26535;48.788;9.214;2023-07-13T16:26:42;40.70;38.70
40816;DHT22;26535;48.788;9.214;2023-07-13T16:29:12;41.20;38.30
40816;DHT22;26535;48.788;9.214;2023-07-13T16:31:39;41.30;37.60
40816;DHT22;26535;48.788;9.214;2023-07-13T16:34:05;40.60;38.40
40816;DHT22;26535;48.788;9.214;2023-07-13T16:36:31;40.20;38.10
40816;DHT22;26535;48.788;9.214;2023-07-13T16:38:58;40.20;38.80
40816;DHT22;26535;48.788;9.214;2023-07-13T16:41:24;40.80;38.20
40816;DHT22;26535;48.788;9.214;2023-07-13T16:43:50;40.10;38.40
40816;DHT22;26535;48.788;9.214;2023-07-13T16:46:21;39.80;38.80
40816;DHT22;26535;48.788;9.214;2023-07-13T16:48:53;39.80;39.20
40816;DHT22;26535;48.788;9.214;2023-07-13T16:51:19;40.00;38.90
40816;DHT22;26535;48.788;9.214;2023-07-13T16:53:45;38.70;39.50
40816;DHT22;26535;48.788;9.214;2023-07-13T16:56:16;37.70;39.90
40816;DHT22;26535;48.788;9.214;2023-07-13T16:58:43;36.70;40.70
40816;DHT22;26535;48.788;9.214;2023-07-13T17:01:09;34.70;41.80
40816;DHT22;26535;48.788;9.214;2023-07-13T17:03:37;33.80;43.60
40816;DHT22;26535;48.788;9.214;2023-07-13T17:06:23;32.90;44.30
40816;DHT22;26535;48.788;9.214;2023-07-13T17:08:51;32.60;44.60
40816;DHT22;26535;48.788;9.214;2023-07-13T17:11:19;33.10;44.60
40816;DHT22;26535;48.788;9.214;2023-07-13T17:13:45;33.90;43.50
40816;DHT22;26535;48.788;9.214;2023-07-13T17:16:12;34.30;43.10
40816;DHT22;26535;48.788;9.214;2023-07-13T17:18:38;34.60;42.80
40816;DHT22;26535;48.788;9.214;2023-07-13T17:21:06;34.50;43.10
40816;DHT22;26535;48.788;9.214;2023-07-13T17:23:33;34.60;42.80
40816;DHT22;26535;48.788;9.214;2023-07-13T17:25:59;35.00;42.60
40816;DHT22;26535;48.788;9.214;2023-07-13T17:28:28;35.60;42.40
40816;DHT22;26535;48.788;9.214;2023-07-13T17:30:56;36.00;42.10
40816;DHT22;26535;48.788;9.214;2023-07-13T17:33:37;35.50;41.90
40816;DHT22;26535;48.788;9.214;2023-07-13T17:36:12;35.30;42.30
40816;DHT22;26535;48.788;9.214;2023-07-13T17:38:43;35.00;42.90
40816;DHT22;26535;48.788;9.214;2023-07-13T17:41:11;35.00;42.40
40816;DHT22;26535;48.788;9.214;2023-07-13T17:43:40;34.40;42.70
40816;DHT22;26535;48.788;9.214;2023-07-13T17:46:26;34.00;43.40
40816;DHT22;26535;48.788;9.214;2023-07-13T17:48:54;33.70;43.50
40816;DHT22;26535;48.788;9.214;2023-07-13T17:51:20;33.50;43.90
40816;DHT22;26535;48.788;9.214;2023-07-13T17:53:48;33.30;44.10
40816;DHT22;26535;48.788;9.214;2023-07-13T17:56:14;33.40;44.10
40816;DHT22;26535;48.788;9.214;2023-07-13T17:58:42;33.50;44.30
40816;DHT22;26535;48.788;9.214;2023-07-13T18:01:17;33.80;44.10
40816;DHT22;26535;48.788;9.214;2023-07-13T18:03:46;33.60;44.10
40816;DHT22;26535;48.788;9.214;2023-07-13T18:06:17;33.60;44.40
40816;DHT22;26535;48.788;9.214;2023-07-13T18:08:54;33.40;44.60
40816;DHT22;26535;48.788;9.214;2023-07-13T18:11:20;33.20;44.50
40816;DHT22;26535;48.788;9.214;2023-07-13T18:13:47;32.90;44.90
40816;DHT22;26535;48.788;9.214;2023-07-13T18:16:31;32.70;45.30
40816;DHT22;26535;48.788;9.214;2023-07-13T18:19:00;32.00;45.50
40816;DHT22;26535;48.788;9.214;2023-07-13T18:21:30;31.50;46.30
40816;DHT22;26535;48.788;9.214;2023-07-13T18:23:56;31.00;47.00
40816;DHT22;26535;48.788;9.214;2023-07-13T18:26:24;30.90;47.40
40816;DHT22;26535;48.788;9.214;2023-07-13T18:28:52;30.80;47.70
40816;DHT22;26535;48.788;9.214;2023-07-13T18:31:20;30.60;47.80
40816;DHT22;26535;48.788;9.214;2023-07-13T18:33:48;29.80;48.60
40816;DHT22;26535;48.788;9.214;2023-07-13T18:36:17;28.90;49.90
40816;DHT22;26535;48.788;9.214;2023-07-13T18:38:44;28.20;50.90
40816;DHT22;26535;48.788;9.214;2023-07-13T18:41:15;27.60;51.90
40816;DHT22;26535;48.788;9.214;2023-07-13T18:43:43;27.30;52.40
40816;DHT22;26535;48.788;9.214;2023-07-13T18:48:43;26.50;53.40
40816;DHT22;26535;48.788;9.214;2023-07-13T18:51:12;26.30;53.60
40816;DHT22;26535;48.788;9.214;2023-07-13T18:53:38;26.10;54.10
40816;DHT22;26535;48.788;9.214;2023-07-13T18:56:05;25.90;54.70
40816;DHT22;26535;48.788;9.214;2023-07-13T18:58:32;25.80;55.20
40816;DHT22;26535;48.788;9.214;2023-07-13T19:01:00;25.60;55.10
40816;DHT22;26535;48.788;9.214;2023-07-13T19:03:36;25.50;55.50
40816;DHT22;26535;48.788;9.214;2023-07-13T19:06:03;25.40;55.70
40816;DHT22;26535;48.788;9.214;2023-07-13T19:08:31;25.30;56.00
40816;DHT22;26535;48.788;9.214;2023-07-13T19:10:56;25.20;56.20
40816;DHT22;26535;48.788;9.214;2023-07-13T19:13:25;25.10;56.60
40816;DHT22;26535;48.788;9.214;2023-07-13T19:15:51;25.00;56.50
40816;DHT22;26535;48.788;9.214;2023-07-13T19:18:19;24.90;56.90
40816;DHT22;26535;48.788;9.214;2023-07-13T19:20:46;24.90;57.10
40816;DHT22;26535;48.788;9.214;2023-07-13T19:23:44;24.80;57.10
40816;DHT22;26535;48.788;9.214;2023-07-13T19:28:44;24.70;57.40
40816;DHT22;26535;48.788;9.214;2023-07-13T19:33:48;24.60;57.80
40816;DHT22;26535;48.788;9.214;2023-07-13T19:36:16;24.60;57.70
40816;DHT22;26535;48.788;9.214;2023-07-13T19:38:43;24.40;58.20
40816;DHT22;26535;48.788;9.214;2023-07-13T19:41:17;24.40;58.80
40816;DHT22;26535;48.788;9.214;2023-07-13T19:43:44;24.40;58.50
40816;DHT22;26535;48.788;9.214;2023-07-13T19:46:33;24.40;58.30
40816;DHT22;26535;48.788;9.214;2023-07-13T19:49:00;24.30;58.30
40816;DHT22;26535;48.788;9.214;2023-07-13T19:51:27;24.30;58.70
40816;DHT22;26535;48.788;9.214;2023-07-13T19:54:02;24.20;58.70
40816;DHT22;26535;48.788;9.214;2023-07-13T19:56:29;24.10;58.80
40816;DHT22;26535;48.788;9.214;2023-07-13T19:58:55;24.00;58.90
40816;DHT22;26535;48.788;9.214;2023-07-13T20:01:24;23.90;59.30
40816;DHT22;26535;48.788;9.214;2023-07-13T20:03:49;23.80;59.60
40816;DHT22;26535;48.788;9.214;2023-07-13T20:08:50;23.50;60.20
40816;DHT22;26535;48.788;9.214;2023-07-13T20:11:16;23.50;60.20
40816;DHT22;26535;48.788;9.214;2023-07-13T20:13:41;23.40;60.40
40816;DHT22;26535;48.788;9.214;2023-07-13T20:16:13;23.30;60.90
40816;DHT22;26535;48.788;9.214;2023-07-13T20:18:43;23.20;60.90
40816;DHT22;26535;48.788;9.214;2023-07-13T20:21:12;23.10;61.20
40816;DHT22;26535;48.788;9.214;2023-07-13T20:23:39;23.10;61.50
40816;DHT22;26535;48.788;9.214;2023-07-13T20:26:05;23.00;61.90
40816;DHT22;26535;48.788;9.214;2023-07-13T20:28:31;23.00;61.80
40816;DHT22;26535;48.788;9.214;2023-07-13T20:30:58;23.00;62.00
40816;DHT22;26535;48.788;9.214;2023-07-13T20:33:25;23.00;61.80
40816;DHT22;26535;48.788;9.214;2023-07-13T20:36:03;23.00;62.00
40816;DHT22;26535;48.788;9.214;2023-07-13T20:38:29;23.00;62.20
40816;DHT22;26535;48.788;9.214;2023-07-13T20:40:55;22.90;62.20
40816;DHT22;26535;48.788;9.214;2023-07-13T20:43:21;23.00;62.30
40816;DHT22;26535;48.788;9.214;2023-07-13T20:45:54;22.90;62.30
40816;DHT22;26535;48.788;9.214;2023-07-13T20:48:26;22.90;62.30
40816;DHT22;26535;48.788;9.214;2023-07-13T20:50:57;22.90;62.40
40816;DHT22;26535;48.788;9.214;2023-07-13T20:53:24;22.80;62.60
40816;DHT22;26535;48.788;9.214;2023-07-13T20:55:50;22.80;62.60
40816;DHT22;26535;48.788;9.214;2023-07-13T20:58:16;22.70;62.70
40816;DHT22;26535;48.788;9.214;2023-07-13T21:00:42;22.70;62.90
40816;DHT22;26535;48.788;9.214;2023-07-13T21:03:28;22.60;63.00
40816;DHT22;26535;48.788;9.214;2023-07-13T21:05:56;22.60;63.50
40816;DHT22;26535;48.788;9.214;2023-07-13T21:08:30;22.50;63.80
40816;DHT22;26535;48.788;9.214;2023-07-13T21:10:55;22.40;64.00
40816;DHT22;26535;48.788;9.214;2023-07-13T21:13:21;22.30;64.20
40816;DHT22;26535;48.788;9.214;2023-07-13T21:15:47;22.30;64.10
40816;DHT22;26535;48.788;9.214;2023-07-13T21:18:21;22.30;64.50
40816;DHT22;26535;48.788;9.214;2023-07-13T21:20:53;22.20;64.50
40816;DHT22;26535;48.788;9.214;2023-07-13T21:25:51;22.00;64.90
40816;DHT22;26535;48.788;9.214;2023-07-13T21:28:16;21.90;65.40
40816;DHT22;26535;48.788;9.214;2023-07-13T21:30:42;21.90;65.50
40816;DHT22;26535;48.788;9.214;2023-07-13T21:33:11;21.80;65.50
40816;DHT22;26535;48.788;9.214;2023-07-13T21:35:39;21.80;65.30
40816;DHT22;26535;48.788;9.214;2023-07-13T21:40:52;21.80;65.60
40816;DHT22;26535;48.788;9.214;2023-07-13T21:43:18;21.80;65.10